AirNav  
 
 552 users online  

78MI Carls Airport
South Rockwood, Michigan, USA

GOING TO SOUTH ROCKWOOD?


FAA INFORMATION EFFECTIVE 25 FEBRUARY 2021

Location

FAA Identifier: 78MI
Lat/Long: 42-02-26.1580N 083-18-12.7490W
42-02.435967N 083-18.212483W
42.0405994,-83.3035414
(estimated)
Elevation: 598 ft. / 182.3 m (surveyed)
Variation: 05W (1985)
From city: 3 miles SW of SOUTH ROCKWOOD, MI
Time zone: UTC -5 (UTC -4 during Daylight Saving Time)
Zip code: 48179

Airport Operations

Airport use: Private use. Permission required prior to landing
Activation date: 11/1968
Control tower: no
ARTCC: CLEVELAND CENTER
FSS: LANSING FLIGHT SERVICE STATION
Attendance: APR-OCT 0800-DUSK
Wind indicator: yes
Segmented circle: yes
Lights: NSTD LIRL RY 18/36 NOT FOR PUBLIC USE.

Airport Communications

WX AWOS-3 at ONZ (7 nm NE): 119.675 (734-692-9686)
WX AWOS-3 at TTF (8 nm SW): 119.075 (734-384-0259)
WX ASOS at DTW (11 nm N): PHONE 734-955-5015
WX ASOS at YIP (16 nm NW): PHONE 734-961-6843

Nearby radio navigation aids

VOR radial/distance  VOR name  Freq  Var
CRLr097/6.9CARLETON VOR/DME115.7003W
DXOr171/10.7DETROIT VOR/DME113.4006W
SVMr153/25.6SALEM VORTAC114.3003W

 
NDB name  Hdg/Dist  Freq  Var  ID
GROSSE ILE249/7.641907WRYS .-. -.-- ...
TECUMSEH095/26.023906WTCU - -.-. ..-
ADRIAN079/36.027806WADG .- -.. --.
PORT CLINTON335/36.942307WPCW .--. -.-. .--

Airport Services

Parking: tiedowns
Airframe service: MAJOR
& A72: PPR FOR REPAIRS - CALL 313-782-9523.
Powerplant service: MAJOR

Runway Information

Runway 18/36

Dimensions: 2285 x 100 ft. / 696 x 30 m
Surface: turf, in fair condition
Runway edge lights: non-standard
NSTD LIRL; NOT FOR PUBLIC USE. NOT FAA APPROVED L-800 SERIES.
Runway edge markings: 18/36 MKD W/CONES.
RUNWAY 18  RUNWAY 36
Latitude: 42-02.623833N42-02.247667N
Longitude: 083-18.212333W083-18.212333W
Elevation: 598.0 ft.598.0 ft.
Traffic pattern: leftleft
Obstructions: 30 ft. trees, 370 ft. from runway, 160 ft. right of centerline, 12:1 slope to clear15 ft. road, 340 ft. from runway, 22:1 slope to clear

Airport Ownership and Management from official FAA records

Ownership: Privately-owned
Owner: CARL H. BRINKMEIER
10850 HAGGERMAN RD
SOUTH ROCKWOOD, MI 48179-9795
Phone 313-782-9523
OWNER LIVES ON PREMISE.
Manager: CARL H. BRINKMEIER
10850 HAGGERMAN RD
SOUTH ROCKWOOD, MI 48179-9795
Phone 313-782-9523
OTHER CONTACT JAMES BRINKMEIER 734-777-6387.

Airport Operational Statistics

Aircraft operations: avg 70/month *
100% transient general aviation
* for 12-month period ending 14 June 1993

Additional Remarks

STANDING WTR ON RWY DURG HVY RAINS.
NO SNOW RMVL DURG WINTER MONTHS.
FOR CD CTC DETROIT APCH AT 800-499-8181.

Instrument Procedures

There are no published instrument procedures at 78MI.

Some nearby airports with instrument procedures:

KONZ - Grosse Ile Municipal Airport (7 nm NE)
KTTF - Custer Airport (8 nm SW)
KDTW - Detroit Metro Wayne County Airport (11 nm N)
KYIP - Willow Run Airport (16 nm NW)
1D2 - Canton-Plymouth-Mettetal Airport (20 nm N)
 
Loc | Ops | Rwys | IFR | FBO | Links
Com | Nav | Svcs | Stats | Notes
Area around 78MI (Carls Airport)
 
Road maps at: MapQuest Bing Google
 
Aerial photo
No photo
 
Sectional chart

 
Airport distance calculator
Flying to Carls Airport? Find the distance to fly.

From to 78MI

Sunrise and sunset
Times for 01-Mar-2021
 Local
(UTC-5)
 Zulu
(UTC)
Morning civil twilight06:4111:41
Sunrise07:0912:09
Sunset18:2223:22
Evening civil twilight18:5023:50

Current date and time
Zulu (UTC)  01-Mar-2021 12:30:42
Local (UTC-5)  01-Mar-2021 07:30:42
 
METAR
KONZ 
8nm NE 
011155Z AUTO 30011G17KT 10SM SCT029 01/M05 A2991 RMK AO2 70005 T00061050 10050 20006
KTTF 
8nm SW 
011155Z AUTO 29009KT 10SM OVC030 01/M03 A2993 RMK AO2 70009 T00071026 10045 20005
KDTW 
12nm N 
011153Z 30016G21KT 10SM FEW029 SCT085 BKN200 01/M06 A2991 RMK AO2 SLP135 70005 T00061056 10044 20006 53021
KYIP 
15nm NW 
011153Z 29014G22KT 10SM FEW032 02/M07 A2992 RMK AO2 PK WND 27026/1141 SLP134 70005 T00171067 10061 20017 53017 $
CXHA 
18nm E 
011100Z AUTO 30005KT 01/M03 RMK AO1 SLP125 T00141032 53024
TAF
KDTW 
12nm N 
010523Z 0106/0212 30015G25KT P6SM BKN025 FM010900 28015KT P6SM SCT025 FM011600 32015G25KT P6SM BKN040 BKN100 PROB30 0116/0120 5SM -SN OVC025 FM012300 28010KT P6SM SCT040
KYIP 
15nm NW 
010306Z 0103/0124 28020G30KT P6SM BKN025 OVC150 TEMPO 0103/0106 OVC015 FM011000 28013KT P6SM SCT025 FM011600 30015G25KT P6SM BKN040 OVC100 PROB30 0117/0121 5SM -SN OVC025
NOTAMs
Click for the latest NOTAMs
NOTAMs are issued by the DoD/FAA and will open in a separate window not controlled by AirNav.

 

 
 

Would you like to see your business listed on this page?

 If your business provides an interesting product or service to pilots, flight crews, aircraft, or users of the Carls Airport, you should consider listing it here.  To start the listing process, click on the button below
 
Add a business
 

Other Pages about Carls Airport

Update a link
 
Copyright © AirNav, LLC. All rights reserved. Privacy Policy  Contact